Time;durP1;ratioP1;P1;durP2;ratioP2;P2;SDS_P1;SDS_P2;PMS_P1;PMS_P2;Temp;Humidity;BMP_temperature;BMP_pressure;BME280_temperature;BME280_humidity;BME280_pressure;Samples;Min_cycle;Max_cycle;Signal;HPM_P1;HPM_P2
2019/08/07 12:19:45;;;;;;;14;4.7;;;;;;;28.25;49.14063;947.5469;;;;
2019/08/07 12:22:10;;;;;;;18.6;5.2;;;;;;;27.85;50.00684;947.5772;;;;
2019/08/07 12:24:35;;;;;;;18.7;5.4;;;;;;;27.74;50.73535;947.4996;;;;
2019/08/07 12:27:00;;;;;;;11.9;4.5;;;;;;;27.19;53.04004;947.558;;;;
2019/08/07 12:29:25;;;;;;;15;4.3;;;;;;;26.81;54.83496;947.6443;;;;
2019/08/07 12:31:50;;;;;;;12.7;3.7;;;;;;;26.67;55.15137;947.6973;;;;
2019/08/07 12:34:15;;;;;;;19;4.5;;;;;;;26.92;55.27832;947.7015;;;;
2019/08/07 12:36:41;;;;;;;11.7;3.7;;;;;;;26.66;55.33008;947.7848;;;;
2019/08/07 12:39:06;;;;;;;13.1;3.7;;;;;;;26.36;55.8877;947.7305;;;;
2019/08/07 12:41:31;;;;;;;14.3;3.9;;;;;;;26.28;56.48633;947.7561;;;;
2019/08/07 12:43:56;;;;;;;13.5;3.7;;;;;;;26.17;56.7002;947.7569;;;;
2019/08/07 12:46:21;;;;;;;13.3;3.6;;;;;;;26.16;57.02148;947.7494;;;;
2019/08/07 12:48:46;;;;;;;12.9;3.9;;;;;;;26.15;56.90137;947.7517;;;;
2019/08/07 12:51:11;;;;;;;20.4;4;;;;;;;26.42;56.32617;947.6997;;;;
2019/08/07 12:54:12;;;;;;;28.3;4.9;;;;;;;26.63;55.64844;947.5801;;;;
2019/08/07 12:56:37;;;;;;;19.9;4.7;;;;;;;26.61;54.92871;947.593;;;;
2019/08/07 12:59:02;;;;;;;32.7;5.6;;;;;;;26.73;54.21484;947.5061;;;;
2019/08/07 13:01:27;;;;;;;12.9;4.4;;;;;;;26.76;54.30371;947.4592;;;;
2019/08/07 13:03:52;;;;;;;17.2;4.6;;;;;;;26.76;54.18457;947.4281;;;;
2019/08/07 13:06:17;;;;;;;14.7;4;;;;;;;26.67;54.0293;947.3667;;;;
2019/08/07 13:08:42;;;;;;;10.7;3.8;;;;;;;26.66;54.3623;947.3655;;;;
2019/08/07 13:11:08;;;;;;;9.2;3.8;;;;;;;26.62;54.38184;947.3588;;;;
2019/08/07 13:13:33;;;;;;;15.1;3.8;;;;;;;26.62;54.52539;947.3008;;;;
2019/08/07 13:15:58;;;;;;;13.8;3.7;;;;;;;26.52;54.82324;947.3667;;;;
2019/08/07 13:18:23;;;;;;;12.8;3.1;;;;;;;26.44;55.04004;947.329;;;;
2019/08/07 13:20:48;;;;;;;11.8;3.4;;;;;;;26.43;54.9541;947.2829;;;;
2019/08/07 13:23:13;;;;;;;17.3;4.1;;;;;;;26.56;54.50586;947.2195;;;;
2019/08/07 13:25:38;;;;;;;24;3.7;;;;;;;26.5;55.05859;947.1429;;;;
2019/08/07 13:28:03;;;;;;;12.7;3.5;;;;;;;26.49;54.87891;947.1731;;;;
2019/08/07 13:30:28;;;;;;;8.6;3.1;;;;;;;26.55;54.67188;947.0965;;;;
2019/08/07 13:32:53;;;;;;;10.5;3.5;;;;;;;26.53;54.7168;946.9957;;;;
2019/08/07 13:35:18;;;;;;;8.5;3.8;;;;;;;26.52;54.90723;946.9642;;;;
2019/08/07 13:37:43;;;;;;;7.6;3.8;;;;;;;26.63;54.69336;946.9418;;;;
2019/08/07 13:40:08;;;;;;;9.5;2.9;;;;;;;26.52;54.96582;946.7988;;;;
2019/08/07 13:42:33;;;;;;;6.7;2.8;;;;;;;26.48;54.98535;946.7316;;;;
2019/08/07 13:44:59;;;;;;;6;2.7;;;;;;;26.55;54.85059;946.8903;;;;
2019/08/07 13:47:24;;;;;;;8.2;3;;;;;;;26.53;55.02637;946.9174;;;;
2019/08/07 13:49:49;;;;;;;28.5;4.4;;;;;;;26.53;54.78809;946.9763;;;;
2019/08/07 13:52:14;;;;;;;10.3;3.1;;;;;;;26.53;55.20508;946.955;;;;
2019/08/07 13:54:39;;;;;;;17;3.5;;;;;;;26.5;54.45117;946.9553;;;;
2019/08/07 13:57:04;;;;;;;10.3;3.2;;;;;;;26.49;53.94824;946.9446;;;;
2019/08/07 13:59:29;;;;;;;8;3;;;;;;;26.51;54.34375;946.9369;;;;
2019/08/07 14:01:54;;;;;;;9;2.6;;;;;;;26.4;54.1875;946.8434;;;;
2019/08/07 14:04:19;;;;;;;11.7;2.6;;;;;;;26.42;54.11816;946.8992;;;;
2019/08/07 14:06:44;;;;;;;7;2.7;;;;;;;26.37;54.31543;946.8821;;;;
2019/08/07 14:09:10;;;;;;;4.6;2.3;;;;;;;26.32;54.44141;946.8904;;;;
2019/08/07 14:11:35;;;;;;;5.8;2.3;;;;;;;26.35;54.34961;946.9678;;;;
2019/08/07 14:14:00;;;;;;;4.4;2.2;;;;;;;26.35;54.16992;946.8942;;;;
2019/08/07 14:16:25;;;;;;;5.1;2.2;;;;;;;26.29;54.3418;946.899;;;;
2019/08/07 14:18:50;;;;;;;5.1;2.4;;;;;;;26.16;54.94629;946.9695;;;;
2019/08/07 14:21:15;;;;;;;3.1;2.1;;;;;;;26.14;55.1582;947.077;;;;
2019/08/07 14:23:40;;;;;;;3.5;2;;;;;;;26.14;55.00293;947.0187;;;;
2019/08/07 14:26:05;;;;;;;3.1;2;;;;;;;26.13;54.87207;947.0505;;;;
2019/08/07 14:28:30;;;;;;;2.9;1.9;;;;;;;26.07;55.25586;947.0363;;;;
2019/08/07 14:30:56;;;;;;;3.3;2.3;;;;;;;26;55.80762;946.9564;;;;
2019/08/07 14:33:21;;;;;;;4;2.2;;;;;;;25.99;55.74805;947.0613;;;;
2019/08/07 14:35:46;;;;;;;3;2;;;;;;;26;55.3916;946.9864;;;;
2019/08/07 14:38:11;;;;;;;2.5;1.8;;;;;;;25.97;55.91016;947.0589;;;;
2019/08/07 14:40:36;;;;;;;3.3;1.9;;;;;;;25.93;55.90723;947.0469;;;;
2019/08/07 14:43:01;;;;;;;2.3;2.1;;;;;;;25.82;55.77441;947.0726;;;;
2019/08/07 14:45:26;;;;;;;2.5;1.8;;;;;;;25.78;55.87598;947.0572;;;;
2019/08/07 14:47:51;;;;;;;2.4;1.8;;;;;;;25.85;55.73047;947.0604;;;;
2019/08/07 14:50:16;;;;;;;2.9;1.9;;;;;;;25.77;55.74316;946.9774;;;;
2019/08/07 14:52:41;;;;;;;2.6;1.9;;;;;;;25.77;55.61328;946.8756;;;;
2019/08/07 14:55:07;;;;;;;4.1;2;;;;;;;25.69;55.69824;946.8689;;;;
2019/08/07 14:57:32;;;;;;;3.7;1.9;;;;;;;25.6;56.11523;946.7888;;;;
2019/08/07 14:59:57;;;;;;;2.1;1.9;;;;;;;25.49;56.51953;946.7913;;;;
2019/08/07 15:02:22;;;;;;;3.2;1.8;;;;;;;25.52;56.34375;946.7129;;;;
2019/08/07 15:04:47;;;;;;;2.1;1.9;;;;;;;25.55;56.28809;946.6967;;;;
2019/08/07 15:07:12;;;;;;;2.3;1.7;;;;;;;25.54;56.47754;946.6342;;;;
2019/08/07 15:09:37;;;;;;;2.7;2;;;;;;;25.47;56.58691;946.6497;;;;
2019/08/07 15:12:02;;;;;;;2.7;2;;;;;;;25.47;56.86133;946.6018;;;;
2019/08/07 15:14:27;;;;;;;2.3;1.8;;;;;;;25.51;56.52051;946.6465;;;;
2019/08/07 15:16:52;;;;;;;2.5;1.7;;;;;;;25.46;56.69336;946.6841;;;;
2019/08/07 15:19:17;;;;;;;2.2;1.8;;;;;;;25.49;56.70996;946.6638;;;;
2019/08/07 15:21:43;;;;;;;3.1;2.1;;;;;;;25.37;57.12305;946.6103;;;;
2019/08/07 15:24:08;;;;;;;4;1.8;;;;;;;25.39;57.25684;946.6383;;;;
2019/08/07 15:26:33;;;;;;;2.2;2;;;;;;;25.29;57.68164;946.6537;;;;
2019/08/07 15:28:58;;;;;;;3.4;1.7;;;;;;;25.34;57.3916;946.6619;;;;
2019/08/07 15:31:23;;;;;;;3.4;2.1;;;;;;;25.35;57.39355;946.6372;;;;
2019/08/07 15:33:48;;;;;;;2.6;1.9;;;;;;;25.34;57.3916;946.7147;;;;
2019/08/07 15:36:13;;;;;;;2.8;2;;;;;;;25.3;57.94727;946.7514;;;;
2019/08/07 15:41:03;;;;;;;21.6;2.9;;;;;;;25.45;57.61914;946.8786;;;;
2019/08/07 15:43:29;;;;;;;9.1;2.2;;;;;;;25.53;57.05957;946.8653;;;;
2019/08/07 15:45:54;;;;;;;4.3;1.9;;;;;;;25.64;56.58496;946.8465;;;;
2019/08/07 15:48:19;;;;;;;4;2;;;;;;;25.7;56.25879;946.8311;;;;
2019/08/07 15:50:45;;;;;;;6.1;2.1;;;;;;;25.74;56.22949;946.8273;;;;
2019/08/07 15:53:10;;;;;;;7.1;2.2;;;;;;;25.81;55.93945;946.7453;;;;
2019/08/07 15:55:36;;;;;;;9.6;2.3;;;;;;;25.89;55.70996;946.7141;;;;
2019/08/07 15:58:01;;;;;;;3.8;2;;;;;;;25.87;55.64941;946.7011;;;;
2019/08/07 16:00:26;;;;;;;8.9;2.3;;;;;;;25.88;55.94824;946.7444;;;;
2019/08/07 16:02:51;;;;;;;3.9;2;;;;;;;25.94;55.59766;946.74;;;;
2019/08/07 16:05:16;;;;;;;4.4;2.2;;;;;;;25.99;55.25879;946.7781;;;;
2019/08/07 16:07:41;;;;;;;16.7;2.7;;;;;;;26.03;55.16895;946.7283;;;;
2019/08/07 16:10:06;;;;;;;9.7;2.2;;;;;;;26.01;55.33203;946.6705;;;;
2019/08/07 16:12:31;;;;;;;10.2;2.3;;;;;;;26.02;55.07227;946.6989;;;;
2019/08/07 16:14:57;;;;;;;3.8;2;;;;;;;25.99;55.18652;946.7239;;;;
2019/08/07 16:17:22;;;;;;;4.6;1.9;;;;;;;25.97;55.24414;946.6943;;;;
2019/08/07 16:19:47;;;;;;;8.2;2;;;;;;;25.99;55.24609;946.6849;;;;
2019/08/07 16:22:12;;;;;;;5.8;2.3;;;;;;;25.94;55.31152;946.6768;;;;
2019/08/07 16:24:37;;;;;;;4.3;2.1;;;;;;;25.94;55.37207;946.71;;;;
2019/08/07 16:27:02;;;;;;;5;2.1;;;;;;;25.92;55.45215;946.6891;;;;
2019/08/07 16:29:28;;;;;;;3.4;2.2;;;;;;;25.89;55.47266;946.7553;;;;
2019/08/07 16:31:53;;;;;;;3.9;2;;;;;;;25.89;55.4248;946.7346;;;;
2019/08/07 16:34:18;;;;;;;4.1;1.9;;;;;;;25.87;55.36328;946.7283;;;;
2019/08/07 16:36:43;;;;;;;3.3;1.7;;;;;;;25.85;55.44434;946.7548;;;;
2019/08/07 16:39:08;;;;;;;3.1;1.9;;;;;;;25.83;55.54785;946.7728;;;;
2019/08/07 16:41:33;;;;;;;4.3;2.1;;;;;;;25.8;55.49805;946.7771;;;;
2019/08/07 16:43:58;;;;;;;5.3;1.9;;;;;;;25.81;55.59375;946.8047;;;;
2019/08/07 16:46:23;;;;;;;3.7;2.1;;;;;;;25.78;55.62598;946.8864;;;;
2019/08/07 16:48:48;;;;;;;2.8;2.1;;;;;;;25.78;55.6377;946.8851;;;;
2019/08/07 16:51:13;;;;;;;3.5;2.1;;;;;;;25.75;55.5752;946.8239;;;;
2019/08/07 16:53:39;;;;;;;3.4;2;;;;;;;25.76;55.5752;946.8365;;;;
2019/08/07 16:56:04;;;;;;;3.6;2.1;;;;;;;25.73;55.69043;946.8329;;;;
2019/08/07 16:58:29;;;;;;;4.1;2.3;;;;;;;25.71;55.74805;946.8267;;;;
2019/08/07 17:00:54;;;;;;;3.1;2.2;;;;;;;25.71;55.74902;946.8452;;;;
2019/08/07 17:03:19;;;;;;;3;2;;;;;;;25.68;56.01855;946.881;;;;
2019/08/07 17:05:44;;;;;;;3.1;2;;;;;;;25.67;56.05371;946.8719;;;;
2019/08/07 17:08:09;;;;;;;2.4;2;;;;;;;25.66;56.06348;946.8704;;;;
2019/08/07 17:10:34;;;;;;;3.7;2.2;;;;;;;25.61;56.21094;946.8201;;;;
2019/08/07 17:13:00;;;;;;;2.9;2;;;;;;;25.66;55.91992;946.8731;;;;
2019/08/07 17:15:25;;;;;;;2.4;1.9;;;;;;;25.64;55.97754;946.808;;;;
2019/08/07 17:17:50;;;;;;;2.4;1.9;;;;;;;25.65;55.84766;946.8156;;;;
2019/08/07 17:20:15;;;;;;;2.2;2;;;;;;;25.64;55.84668;946.8538;;;;
2019/08/07 17:22:40;;;;;;;3.5;1.9;;;;;;;25.62;55.93945;946.8817;;;;
2019/08/07 17:25:06;;;;;;;2.2;2;;;;;;;25.65;55.77637;946.84;;;;
2019/08/07 17:27:31;;;;;;;4.3;2.5;;;;;;;25.62;55.79688;946.8505;;;;
2019/08/07 17:29:56;;;;;;;3.2;2.3;;;;;;;25.61;55.77246;946.8709;;;;
2019/08/07 17:32:21;;;;;;;3.4;2.2;;;;;;;25.6;55.8291;946.8965;;;;
2019/08/07 17:34:46;;;;;;;3.4;2.2;;;;;;;25.6;55.8291;946.8786;;;;
2019/08/07 17:37:11;;;;;;;3.2;2.3;;;;;;;25.59;55.875;946.8558;;;;
2019/08/07 17:39:36;;;;;;;3;2.1;;;;;;;25.59;55.79297;946.8677;;;;
2019/08/07 17:42:01;;;;;;;2.8;2.1;;;;;;;25.58;55.85059;946.9006;;;;
2019/08/07 17:44:26;;;;;;;3.3;2.2;;;;;;;25.56;55.72949;946.9141;;;;
2019/08/07 17:46:51;;;;;;;2.7;2.1;;;;;;;25.57;55.64648;946.9464;;;;
2019/08/07 17:49:16;;;;;;;2.9;2;;;;;;;25.55;55.64453;946.9766;;;;
2019/08/07 17:51:41;;;;;;;3.3;2.1;;;;;;;25.55;55.60938;946.963;;;;
2019/08/07 17:54:06;;;;;;;3;2.1;;;;;;;25.55;55.63281;946.9832;;;;
2019/08/07 17:56:32;;;;;;;2.6;2.1;;;;;;;25.54;55.64355;946.9272;;;;
2019/08/07 17:58:57;;;;;;;2.2;2;;;;;;;25.55;55.50195;946.9194;;;;
2019/08/07 18:01:22;;;;;;;3.6;2.2;;;;;;;25.54;55.5957;946.9478;;;;
2019/08/07 18:03:47;;;;;;;2.3;1.9;;;;;;;25.55;55.59668;946.9392;;;;
2019/08/07 18:06:13;;;;;;;3.3;2.1;;;;;;;25.56;55.51465;946.9933;;;;
2019/08/07 18:08:38;;;;;;;2.9;2.3;;;;;;;25.56;55.51563;947.0419;;;;
2019/08/07 18:11:03;;;;;;;3.7;2.5;;;;;;;25.53;55.66504;947.0373;;;;
2019/08/07 18:13:28;;;;;;;4.3;2.2;;;;;;;25.53;55.60645;947.0508;;;;
2019/08/07 18:15:53;;;;;;;2.6;2.3;;;;;;;25.52;55.57031;947.1795;;;;
2019/08/07 18:18:18;;;;;;;4.4;2.2;;;;;;;25.52;55.61719;947.2355;;;;
2019/08/07 18:20:43;;;;;;;3.1;2.2;;;;;;;25.52;55.53418;947.3027;;;;
2019/08/07 18:23:08;;;;;;;3;2.2;;;;;;;25.53;55.40527;947.3787;;;;
2019/08/07 18:25:33;;;;;;;2.2;2;;;;;;;25.55;55.37109;947.4661;;;;
2019/08/07 18:28:26;;;;;;;3.3;2.5;;;;;;;25.53;55.39258;947.4925;;;;
2019/08/07 18:30:28;;;;;;;4.6;2.5;;;;;;;25.54;55.53613;947.5217;;;;
2019/08/07 18:32:48;;;;;;;3.5;2.6;;;;;;;25.53;55.66504;947.6334;;;;
2019/08/07 18:35:14;;;;;;;3;2.2;;;;;;;25.53;55.53418;947.707;;;;
2019/08/07 18:37:39;;;;;;;8.6;2.5;;;;;;;25.59;55.30469;947.825;;;;
2019/08/07 18:40:04;;;;;;;7.5;2.9;;;;;;;25.59;55.29297;947.8273;;;;
2019/08/07 18:42:29;;;;;;;7.7;2.9;;;;;;;25.56;55.36133;947.9255;;;;
2019/08/07 18:44:54;;;;;;;6.9;3.3;;;;;;;25.55;55.32422;947.9899;;;;
2019/08/07 18:47:20;;;;;;;6.8;2.9;;;;;;;25.55;55.2998;948.1396;;;;
2019/08/07 18:49:46;;;;;;;5;2.8;;;;;;;25.54;55.29785;948.1881;;;;
2019/08/07 18:52:11;;;;;;;6.9;3.1;;;;;;;25.52;55.34375;948.1753;;;;
2019/08/07 18:54:36;;;;;;;6.8;3.6;;;;;;;25.46;55.53906;948.2003;;;;
2019/08/07 18:57:01;;;;;;;8.4;3.6;;;;;;;25.41;55.48535;948.1785;;;;
2019/08/07 18:59:26;;;;;;;5.6;3.6;;;;;;;25.4;55.32813;948.1501;;;;
2019/08/07 19:01:51;;;;;;;5;2.8;;;;;;;25.39;55.23145;948.088;;;;
2019/08/07 19:04:16;;;;;;;4.6;2.6;;;;;;;25.39;55.16113;948.033;;;;
2019/08/07 19:06:41;;;;;;;3.1;2.2;;;;;;;25.37;55.1709;948.0359;;;;
2019/08/07 19:09:07;;;;;;;5.1;2.5;;;;;;;25.39;55.05469;947.997;;;;
2019/08/07 19:11:31;;;;;;;5;2.4;;;;;;;25.42;54.94922;948.0015;;;;
2019/08/07 19:13:57;;;;;;;5.7;2.3;;;;;;;25.43;54.98633;948.1228;;;;
2019/08/07 19:16:22;;;;;;;8.2;2.9;;;;;;;25.43;54.99805;948.1881;;;;
2019/08/07 19:18:47;;;;;;;10;3;;;;;;;25.45;54.97754;948.2745;;;;
2019/08/07 19:21:12;;;;;;;16.1;3.2;;;;;;;25.45;54.90723;948.2636;;;;
2019/08/07 19:23:37;;;;;;;15.6;3.4;;;;;;;25.47;54.84863;948.1589;;;;
2019/08/07 19:26:02;;;;;;;13.5;3.5;;;;;;;25.47;54.86133;948.1754;;;;
2019/08/07 19:28:27;;;;;;;14.7;3.2;;;;;;;25.46;54.89648;948.0762;;;;
2019/08/07 19:30:52;;;;;;;12.1;3.4;;;;;;;25.47;54.80176;948.098;;;;
2019/08/07 19:33:17;;;;;;;12.5;3.3;;;;;;;25.46;54.8252;948.0817;;;;
2019/08/07 19:35:42;;;;;;;16.9;3.4;;;;;;;25.47;54.83691;948.1362;;;;
2019/08/07 19:38:07;;;;;;;20.4;3.8;;;;;;;25.45;54.84668;948.1448;;;;
2019/08/07 19:40:33;;;;;;;14.6;3.5;;;;;;;25.47;54.74219;948.0641;;;;
2019/08/07 19:42:58;;;;;;;13.7;3.1;;;;;;;25.47;54.6582;948.0986;;;;
2019/08/07 19:45:23;;;;;;;12.6;3.3;;;;;;;25.44;54.69043;948.1053;;;;
2019/08/07 19:47:48;;;;;;;12;3;;;;;;;25.44;54.66699;948.1161;;;;
2019/08/07 19:50:13;;;;;;;8.6;2.9;;;;;;;25.44;54.5957;948.168;;;;
2019/08/07 19:52:38;;;;;;;13.1;2.8;;;;;;;25.42;54.71094;948.2988;;;;
2019/08/07 19:55:03;;;;;;;14.4;2.8;;;;;;;25.41;54.67578;948.2878;;;;
2019/08/07 19:57:28;;;;;;;14.5;3.1;;;;;;;25.4;54.68652;948.3127;;;;
2019/08/07 19:59:53;;;;;;;11.3;3.1;;;;;;;25.4;54.68555;948.315;;;;
2019/08/07 20:02:19;;;;;;;12.8;3.1;;;;;;;25.43;54.55859;948.3264;;;;
2019/08/07 20:04:44;;;;;;;11.2;3.2;;;;;;;25.44;54.73828;948.1951;;;;
2019/08/07 20:07:09;;;;;;;14.9;2.9;;;;;;;25.42;54.72461;948.1589;;;;
2019/08/07 20:09:34;;;;;;;10.2;2.6;;;;;;;25.4;54.58984;948.1577;;;;
2019/08/07 20:11:59;;;;;;;11.1;2.4;;;;;;;25.39;54.48242;948.1883;;;;
2019/08/07 20:14:24;;;;;;;11.6;2.5;;;;;;;25.37;54.43262;948.2128;;;;
2019/08/07 20:16:49;;;;;;;10.4;2.3;;;;;;;25.37;54.38477;948.2487;;;;
2019/08/07 20:19:14;;;;;;;8;2.1;;;;;;;25.36;54.35938;948.2058;;;;
2019/08/07 20:21:39;;;;;;;8.7;2.2;;;;;;;25.34;54.36914;948.2404;;;;
2019/08/07 20:24:05;;;;;;;7.7;2.1;;;;;;;25.32;54.41504;948.2828;;;;
2019/08/07 20:26:30;;;;;;;3.8;1.6;;;;;;;25.32;54.40137;948.3015;;;;
2019/08/07 20:28:55;;;;;;;5.3;1.9;;;;;;;25.31;54.4248;948.294;;;;
2019/08/07 20:31:20;;;;;;;5.1;1.8;;;;;;;25.31;54.38965;948.2317;;;;
2019/08/07 20:33:45;;;;;;;4.3;1.6;;;;;;;25.31;54.34082;948.2379;;;;
2019/08/07 20:36:10;;;;;;;5.2;1.5;;;;;;;25.3;54.32813;948.2304;;;;
2019/08/07 20:38:35;;;;;;;6.4;1.6;;;;;;;25.3;54.30469;948.3169;;;;
2019/08/07 20:41:00;;;;;;;2.6;1.4;;;;;;;25.29;54.31641;948.4078;;;;
2019/08/07 20:43:25;;;;;;;4.2;1.4;;;;;;;25.31;54.34082;948.5008;;;;
2019/08/07 20:45:50;;;;;;;3.6;1.4;;;;;;;25.32;54.31836;948.4958;;;;
2019/08/07 20:48:15;;;;;;;3.4;1.5;;;;;;;25.32;54.38965;948.4936;;;;
2019/08/07 20:50:40;;;;;;;3.4;1.5;;;;;;;25.32;54.36621;948.5034;;;;
2019/08/07 20:53:06;;;;;;;3.9;1.3;;;;;;;25.32;54.33008;948.5508;;;;
2019/08/07 20:55:31;;;;;;;2;1.3;;;;;;;25.33;54.2373;948.5831;;;;
2019/08/07 20:57:56;;;;;;;2.9;1.3;;;;;;;25.31;54.34082;948.6933;;;;
2019/08/07 21:00:21;;;;;;;3.1;1.2;;;;;;;25.31;54.34082;948.6548;;;;
2019/08/07 21:02:46;;;;;;;4.5;1.2;;;;;;;25.29;54.38574;948.6147;;;;
2019/08/07 21:05:11;;;;;;;10.1;1.6;;;;;;;25.33;54.35645;948.5856;;;;
2019/08/07 21:07:36;;;;;;;7.3;1.6;;;;;;;25.35;54.34668;948.6431;;;;
2019/08/07 21:10:01;;;;;;;7;1.5;;;;;;;25.36;54.27637;948.6289;;;;
2019/08/07 21:12:27;;;;;;;5.2;1.4;;;;;;;25.37;54.07617;948.6483;;;;
2019/08/07 21:14:52;;;;;;;5.8;1.3;;;;;;;25.38;54.13672;948.6542;;;;
2019/08/07 21:17:17;;;;;;;4.6;1.6;;;;;;;25.39;54.13672;948.6057;;;;
2019/08/07 21:19:42;;;;;;;4.4;1.4;;;;;;;25.43;54.01074;948.6264;;;;
2019/08/07 21:22:07;;;;;;;5.5;1.5;;;;;;;25.42;54.05762;948.5857;;;;
2019/08/07 21:24:32;;;;;;;4.5;1.3;;;;;;;25.41;54.10449;948.5637;;;;
2019/08/07 21:26:57;;;;;;;3.9;1.1;;;;;;;25.41;54.06836;948.6064;;;;
2019/08/07 21:29:22;;;;;;;5;1.4;;;;;;;25.42;54.08203;948.6358;;;;
2019/08/07 21:32:42;;;;;;;3.5;1.3;;;;;;;25.43;54.01074;948.6471;;;;
2019/08/07 21:35:07;;;;;;;4.3;1.6;;;;;;;25.44;53.94043;948.5773;;;;
2019/08/07 21:37:33;;;;;;;2.9;1.3;;;;;;;25.44;53.97656;948.5953;;;;
2019/08/07 21:39:58;;;;;;;2.6;1.1;;;;;;;25.42;54.08203;948.5972;;;;
2019/08/07 21:42:23;;;;;;;4.2;1.4;;;;;;;25.43;54.09473;948.5992;;;;
2019/08/07 21:44:48;;;;;;;3.3;1.3;;;;;;;25.42;54.08203;948.6266;;;;
2019/08/07 21:47:13;;;;;;;5;1.3;;;;;;;25.39;54.12598;948.6144;;;;
2019/08/07 21:49:39;;;;;;;3.5;1.3;;;;;;;25.39;54.18555;948.647;;;;
2019/08/07 21:52:04;;;;;;;2.5;1.2;;;;;;;25.4;54.16211;948.6215;;;;
2019/08/07 21:54:29;;;;;;;3.1;1.3;;;;;;;25.4;54.1377;948.5943;;;;
2019/08/07 21:56:54;;;;;;;3.2;1.2;;;;;;;25.42;54.02051;948.6646;;;;
2019/08/07 21:59:19;;;;;;;2.6;1;;;;;;;25.4;54.03027;948.6492;;;;
2019/08/07 22:01:45;;;;;;;4.2;1.2;;;;;;;25.38;53.94629;948.5954;;;;
2019/08/07 22:04:10;;;;;;;2.7;1.1;;;;;;;25.38;54.01758;948.5449;;;;
2019/08/07 22:06:35;;;;;;;3.9;1.2;;;;;;;25.37;54.03809;948.4813;;;;
2019/08/07 22:09:00;;;;;;;3.1;1;;;;;;;25.37;54.00391;948.4828;;;;
2019/08/07 22:11:25;;;;;;;3.2;1.1;;;;;;;25.33;54.05859;948.495;;;;
2019/08/07 22:13:50;;;;;;;1.2;0.8;;;;;;;25.32;54.05762;948.5033;;;;
2019/08/07 22:16:15;;;;;;;3.5;0.9;;;;;;;25.33;54.10645;948.5338;;;;
2019/08/07 22:18:40;;;;;;;2.8;1;;;;;;;25.36;53.97852;948.5259;;;;
2019/08/07 22:21:06;;;;;;;2.3;1.1;;;;;;;25.35;54.04785;948.5123;;;;
2019/08/07 22:23:31;;;;;;;3.1;1.2;;;;;;;25.35;54.02539;948.5723;;;;
2019/08/07 22:25:56;;;;;;;2;1.3;;;;;;;25.35;53.98926;948.6442;;;;
2019/08/07 22:28:22;;;;;;;2.1;1.1;;;;;;;25.33;54.08301;948.6861;;;;
2019/08/07 22:30:47;;;;;;;3.4;1.2;;;;;;;25.35;54.00195;948.7562;;;;
2019/08/07 22:33:12;;;;;;;1.8;1.1;;;;;;;25.33;54.03516;948.7244;;;;
2019/08/07 22:35:37;;;;;;;3.9;1.1;;;;;;;25.35;53.98828;948.7393;;;;
2019/08/07 22:38:02;;;;;;;1.7;0.9;;;;;;;25.35;53.98926;948.7845;;;;
2019/08/07 22:40:28;;;;;;;3.3;1;;;;;;;25.31;54.09082;948.8035;;;;
2019/08/07 22:42:53;;;;;;;5.1;1.1;;;;;;;25.28;54.12402;948.8378;;;;
2019/08/07 22:45:19;;;;;;;3.2;1.1;;;;;;;25.27;54.14648;948.7988;;;;
2019/08/07 22:47:44;;;;;;;2.8;1.1;;;;;;;25.26;54.16895;948.7957;;;;
2019/08/07 22:50:09;;;;;;;4.1;1.2;;;;;;;25.26;54.08594;948.7646;;;;
2019/08/07 22:52:34;;;;;;;3.3;1.3;;;;;;;25.28;54.04004;948.7623;;;;
2019/08/07 22:54:59;;;;;;;4.3;1.1;;;;;;;25.29;53.96973;948.7958;;;;
2019/08/07 22:57:24;;;;;;;7;1.2;;;;;;;25.29;53.93555;948.8274;;;;
2019/08/07 22:59:49;;;;;;;2.9;1.1;;;;;;;25.29;53.96875;948.8041;;;;
2019/08/07 23:02:15;;;;;;;2.9;1;;;;;;;25.3;53.94824;948.8131;;;;
2019/08/07 23:04:40;;;;;;;6;1.2;;;;;;;25.29;54.0293;948.8236;;;;
2019/08/07 23:07:05;;;;;;;5.7;1.5;;;;;;;25.32;54.06836;948.8234;;;;
2019/08/07 23:09:30;;;;;;;8;1.6;;;;;;;25.3;54.10352;948.7697;;;;
2019/08/07 23:11:55;;;;;;;6.9;1.3;;;;;;;25.32;54.22363;948.8044;;;;
2019/08/07 23:14:20;;;;;;;7.1;1.4;;;;;;;25.32;54.19922;948.7843;;;;
2019/08/07 23:16:45;;;;;;;4.4;1.3;;;;;;;25.31;54.19824;948.7594;;;;
2019/08/07 23:19:10;;;;;;;2.9;1.4;;;;;;;25.33;54.2373;948.6873;;;;
2019/08/07 23:21:35;;;;;;;8.4;1.3;;;;;;;25.34;54.28516;948.6361;;;;
2019/08/07 23:24:00;;;;;;;6.3;1.6;;;;;;;25.32;54.24805;948.6127;;;;
2019/08/07 23:26:26;;;;;;;5.3;1.4;;;;;;;25.3;54.25781;948.688;;;;
2019/08/07 23:28:51;;;;;;;3.9;1.3;;;;;;;25.3;54.28125;948.7086;;;;
2019/08/07 23:31:16;;;;;;;6.6;1.4;;;;;;;25.3;54.25684;948.6408;;;;
2019/08/07 23:33:41;;;;;;;3.2;1.2;;;;;;;25.3;54.16113;948.5591;;;;
2019/08/07 23:36:06;;;;;;;4;1.2;;;;;;;25.3;54.22266;948.462;;;;
2019/08/07 23:38:31;;;;;;;3;1.1;;;;;;;25.31;54.22363;948.4539;;;;
2019/08/07 23:40:56;;;;;;;3;1.1;;;;;;;25.34;54.07227;948.549;;;;
2019/08/07 23:43:22;;;;;;;3.8;1.1;;;;;;;25.31;54.1875;948.5583;;;;
2019/08/07 23:45:47;;;;;;;2.5;1.1;;;;;;;25.3;54.18555;948.5461;;;;
2019/08/07 23:48:12;;;;;;;4.3;1.3;;;;;;;25.32;54.1875;948.5328;;;;
2019/08/07 23:50:38;;;;;;;5.1;1.3;;;;;;;25.31;54.23535;948.5959;;;;
2019/08/07 23:53:03;;;;;;;4;1;;;;;;;25.3;54.19824;948.5801;;;;
2019/08/07 23:55:28;;;;;;;3.3;1;;;;;;;25.3;54.2207;948.538;;;;
2019/08/07 23:57:54;;;;;;;4.6;1.2;;;;;;;25.31;54.23438;948.5316;;;;
